sensor_id;sensor_type;location;lat;lon;timestamp;temperature;humidity
1958;DHT22;979;51.076;13.748;2023-09-07T00:01:21;19.00;78.90
1958;DHT22;979;51.076;13.748;2023-09-07T00:03:50;18.80;78.90
1958;DHT22;979;51.076;13.748;2023-09-07T00:06:19;18.90;79.00
1958;DHT22;979;51.076;13.748;2023-09-07T00:08:47;18.90;79.40
1958;DHT22;979;51.076;13.748;2023-09-07T00:11:16;18.90;79.50
1958;DHT22;979;51.076;13.748;2023-09-07T00:13:48;18.80;79.40
1958;DHT22;979;51.076;13.748;2023-09-07T00:16:20;18.80;79.70
1958;DHT22;979;51.076;13.748;2023-09-07T00:18:48;18.80;79.70
1958;DHT22;979;51.076;13.748;2023-09-07T00:21:17;18.70;79.80
1958;DHT22;979;51.076;13.748;2023-09-07T00:23:45;18.70;80.10
1958;DHT22;979;51.076;13.748;2023-09-07T00:26:13;18.60;80.00
1958;DHT22;979;51.076;13.748;2023-09-07T00:28:42;18.60;80.10
1958;DHT22;979;51.076;13.748;2023-09-07T00:31:12;18.60;80.20
1958;DHT22;979;51.076;13.748;2023-09-07T00:33:41;18.60;80.50
1958;DHT22;979;51.076;13.748;2023-09-07T00:36:09;18.40;80.30
1958;DHT22;979;51.076;13.748;2023-09-07T00:38:38;18.50;80.50
1958;DHT22;979;51.076;13.748;2023-09-07T00:41:07;18.50;80.80
1958;DHT22;979;51.076;13.748;2023-09-07T00:43:36;18.40;80.80
1958;DHT22;979;51.076;13.748;2023-09-07T00:46:07;18.40;81.00
1958;DHT22;979;51.076;13.748;2023-09-07T00:48:38;18.30;80.80
1958;DHT22;979;51.076;13.748;2023-09-07T00:51:10;18.30;81.00
1958;DHT22;979;51.076;13.748;2023-09-07T00:53:38;18.40;81.50
1958;DHT22;979;51.076;13.748;2023-09-07T00:56:10;18.30;81.40
1958;DHT22;979;51.076;13.748;2023-09-07T00:58:43;18.10;81.10
1958;DHT22;979;51.076;13.748;2023-09-07T01:01:13;18.20;81.30
1958;DHT22;979;51.076;13.748;2023-09-07T01:03:43;18.20;81.50
1958;DHT22;979;51.076;13.748;2023-09-07T01:06:15;18.10;81.50
1958;DHT22;979;51.076;13.748;2023-09-07T01:08:49;18.20;81.80
1958;DHT22;979;51.076;13.748;2023-09-07T01:11:19;18.10;81.50
1958;DHT22;979;51.076;13.748;2023-09-07T01:13:50;18.00;81.70
1958;DHT22;979;51.076;13.748;2023-09-07T01:16:21;18.00;81.40
1958;DHT22;979;51.076;13.748;2023-09-07T01:18:53;18.00;81.60
1958;DHT22;979;51.076;13.748;2023-09-07T01:21:22;18.00;81.80
1958;DHT22;979;51.076;13.748;2023-09-07T01:23:53;17.90;81.60
1958;DHT22;979;51.076;13.748;2023-09-07T01:26:23;18.00;81.80
1958;DHT22;979;51.076;13.748;2023-09-07T01:28:52;17.90;82.10
1958;DHT22;979;51.076;13.748;2023-09-07T01:31:20;17.80;81.90
1958;DHT22;979;51.076;13.748;2023-09-07T01:33:49;17.80;82.20
1958;DHT22;979;51.076;13.748;2023-09-07T01:36:18;17.80;82.20
1958;DHT22;979;51.076;13.748;2023-09-07T01:38:46;17.70;82.20
1958;DHT22;979;51.076;13.748;2023-09-07T01:41:17;17.70;82.30
1958;DHT22;979;51.076;13.748;2023-09-07T01:43:45;17.70;82.40
1958;DHT22;979;51.076;13.748;2023-09-07T01:46:14;17.70;82.70
1958;DHT22;979;51.076;13.748;2023-09-07T01:48:42;17.60;82.40
1958;DHT22;979;51.076;13.748;2023-09-07T01:51:11;17.60;82.60
1958;DHT22;979;51.076;13.748;2023-09-07T01:53:42;17.60;82.60
1958;DHT22;979;51.076;13.748;2023-09-07T01:56:10;17.50;82.70
1958;DHT22;979;51.076;13.748;2023-09-07T01:58:41;17.50;82.80
1958;DHT22;979;51.076;13.748;2023-09-07T02:01:20;17.60;82.90
1958;DHT22;979;51.076;13.748;2023-09-07T02:03:52;17.50;82.80
1958;DHT22;979;51.076;13.748;2023-09-07T02:06:23;17.40;82.80
1958;DHT22;979;51.076;13.748;2023-09-07T02:08:53;17.50;83.20
1958;DHT22;979;51.076;13.748;2023-09-07T02:11:23;17.50;83.10
1958;DHT22;979;51.076;13.748;2023-09-07T02:13:53;17.40;83.10
1958;DHT22;979;51.076;13.748;2023-09-07T02:16:27;17.40;83.30
1958;DHT22;979;51.076;13.748;2023-09-07T02:19:05;17.40;83.40
1958;DHT22;979;51.076;13.748;2023-09-07T02:21:40;17.40;83.50
1958;DHT22;979;51.076;13.748;2023-09-07T02:24:09;17.40;83.70
1958;DHT22;979;51.076;13.748;2023-09-07T02:26:37;17.30;83.50
1958;DHT22;979;51.076;13.748;2023-09-07T02:29:12;17.30;83.50
1958;DHT22;979;51.076;13.748;2023-09-07T02:31:41;17.30;83.70
1958;DHT22;979;51.076;13.748;2023-09-07T02:34:09;17.30;83.80
1958;DHT22;979;51.076;13.748;2023-09-07T02:36:38;17.20;83.70
1958;DHT22;979;51.076;13.748;2023-09-07T02:39:06;17.20;84.10
1958;DHT22;979;51.076;13.748;2023-09-07T02:41:35;17.20;84.40
1958;DHT22;979;51.076;13.748;2023-09-07T02:44:05;17.20;84.20
1958;DHT22;979;51.076;13.748;2023-09-07T02:46:35;17.20;84.00
1958;DHT22;979;51.076;13.748;2023-09-07T02:49:06;17.10;84.20
1958;DHT22;979;51.076;13.748;2023-09-07T02:51:35;17.10;85.10
1958;DHT22;979;51.076;13.748;2023-09-07T02:54:07;17.10;84.60
1958;DHT22;979;51.076;13.748;2023-09-07T02:56:36;17.20;84.50
1958;DHT22;979;51.076;13.748;2023-09-07T02:59:04;17.10;84.50
1958;DHT22;979;51.076;13.748;2023-09-07T03:01:38;17.10;84.80
1958;DHT22;979;51.076;13.748;2023-09-07T03:04:07;16.90;84.40
1958;DHT22;979;51.076;13.748;2023-09-07T03:06:37;17.00;84.80
1958;DHT22;979;51.076;13.748;2023-09-07T03:09:08;17.00;84.90
1958;DHT22;979;51.076;13.748;2023-09-07T03:11:38;17.10;84.90
1958;DHT22;979;51.076;13.748;2023-09-07T03:14:07;17.00;84.80
1958;DHT22;979;51.076;13.748;2023-09-07T03:16:39;16.90;84.80
1958;DHT22;979;51.076;13.748;2023-09-07T03:19:11;16.90;85.10
1958;DHT22;979;51.076;13.748;2023-09-07T03:21:40;16.90;85.10
1958;DHT22;979;51.076;13.748;2023-09-07T03:24:09;16.90;85.00
1958;DHT22;979;51.076;13.748;2023-09-07T03:26:37;16.90;85.20
1958;DHT22;979;51.076;13.748;2023-09-07T03:29:06;16.90;85.10
1958;DHT22;979;51.076;13.748;2023-09-07T03:31:35;16.80;85.00
1958;DHT22;979;51.076;13.748;2023-09-07T03:34:05;16.80;85.00
1958;DHT22;979;51.076;13.748;2023-09-07T03:36:34;16.80;85.00
1958;DHT22;979;51.076;13.748;2023-09-07T03:39:03;16.70;85.00
1958;DHT22;979;51.076;13.748;2023-09-07T03:41:35;16.70;84.90
1958;DHT22;979;51.076;13.748;2023-09-07T03:44:04;16.70;85.10
1958;DHT22;979;51.076;13.748;2023-09-07T03:46:34;16.70;85.10
1958;DHT22;979;51.076;13.748;2023-09-07T03:49:05;16.60;84.90
1958;DHT22;979;51.076;13.748;2023-09-07T03:51:33;16.60;85.10
1958;DHT22;979;51.076;13.748;2023-09-07T03:54:02;16.50;85.00
1958;DHT22;979;51.076;13.748;2023-09-07T03:56:33;16.60;85.10
1958;DHT22;979;51.076;13.748;2023-09-07T03:59:03;16.60;85.10
1958;DHT22;979;51.076;13.748;2023-09-07T04:01:32;16.70;85.20
1958;DHT22;979;51.076;13.748;2023-09-07T04:04:00;16.60;85.00
1958;DHT22;979;51.076;13.748;2023-09-07T04:06:31;16.50;84.80
1958;DHT22;979;51.076;13.748;2023-09-07T04:09:02;16.50;84.90
1958;DHT22;979;51.076;13.748;2023-09-07T04:11:35;16.50;84.70
1958;DHT22;979;51.076;13.748;2023-09-07T04:14:05;16.50;84.50
1958;DHT22;979;51.076;13.748;2023-09-07T04:16:36;16.40;84.70
1958;DHT22;979;51.076;13.748;2023-09-07T04:19:07;16.40;84.60
1958;DHT22;979;51.076;13.748;2023-09-07T04:21:38;16.30;84.60
1958;DHT22;979;51.076;13.748;2023-09-07T04:24:07;16.30;84.70
1958;DHT22;979;51.076;13.748;2023-09-07T04:26:49;16.30;84.70
1958;DHT22;979;51.076;13.748;2023-09-07T04:29:18;16.30;84.80
1958;DHT22;979;51.076;13.748;2023-09-07T04:31:48;16.20;84.90
1958;DHT22;979;51.076;13.748;2023-09-07T04:34:26;16.20;85.10
1958;DHT22;979;51.076;13.748;2023-09-07T04:36:56;16.20;85.00
1958;DHT22;979;51.076;13.748;2023-09-07T04:39:25;16.30;85.20
1958;DHT22;979;51.076;13.748;2023-09-07T04:41:55;16.30;85.10
1958;DHT22;979;51.076;13.748;2023-09-07T04:44:25;16.30;85.10
1958;DHT22;979;51.076;13.748;2023-09-07T04:46:55;16.20;84.70
1958;DHT22;979;51.076;13.748;2023-09-07T04:49:23;16.20;85.00
1958;DHT22;979;51.076;13.748;2023-09-07T04:51:53;16.20;84.90
1958;DHT22;979;51.076;13.748;2023-09-07T04:54:23;16.20;85.00
1958;DHT22;979;51.076;13.748;2023-09-07T04:56:51;16.30;85.10
1958;DHT22;979;51.076;13.748;2023-09-07T04:59:23;16.20;85.00
1958;DHT22;979;51.076;13.748;2023-09-07T05:02:13;16.20;85.30
1958;DHT22;979;51.076;13.748;2023-09-07T05:04:44;16.10;85.50
1958;DHT22;979;51.076;13.748;2023-09-07T05:07:15;16.40;85.40
1958;DHT22;979;51.076;13.748;2023-09-07T05:13:25;16.50;85.40
1958;DHT22;979;51.076;13.748;2023-09-07T05:16:04;16.50;85.30
1958;DHT22;979;51.076;13.748;2023-09-07T05:18:45;16.50;85.30
1958;DHT22;979;51.076;13.748;2023-09-07T05:47:58;17.00;85.50
1958;DHT22;979;51.076;13.748;2023-09-07T05:50:55;17.10;85.90
1958;DHT22;979;51.076;13.748;2023-09-07T05:53:28;17.10;86.20
1958;DHT22;979;51.076;13.748;2023-09-07T06:20:32;17.90;85.60
1958;DHT22;979;51.076;13.748;2023-09-07T06:23:16;17.70;85.60
1958;DHT22;979;51.076;13.748;2023-09-07T06:25:46;18.10;86.00
1958;DHT22;979;51.076;13.748;2023-09-07T06:28:34;18.20;85.80
1958;DHT22;979;51.076;13.748;2023-09-07T06:31:37;18.10;85.20
1958;DHT22;979;51.076;13.748;2023-09-07T06:34:58;18.40;85.50
1958;DHT22;979;51.076;13.748;2023-09-07T06:37:50;18.50;85.30
1958;DHT22;979;51.076;13.748;2023-09-07T06:41:38;18.50;84.70
1958;DHT22;979;51.076;13.748;2023-09-07T06:44:53;18.90;84.70
1958;DHT22;979;51.076;13.748;2023-09-07T06:48:33;18.90;84.90
1958;DHT22;979;51.076;13.748;2023-09-07T06:51:38;19.10;84.30
1958;DHT22;979;51.076;13.748;2023-09-07T06:54:39;19.10;84.00
1958;DHT22;979;51.076;13.748;2023-09-07T06:57:38;19.30;83.90
1958;DHT22;979;51.076;13.748;2023-09-07T07:00:51;19.40;83.70
1958;DHT22;979;51.076;13.748;2023-09-07T07:07:24;19.70;83.20
1958;DHT22;979;51.076;13.748;2023-09-07T07:10:24;19.90;83.50
1958;DHT22;979;51.076;13.748;2023-09-07T07:13:27;20.10;83.00
1958;DHT22;979;51.076;13.748;2023-09-07T07:16:15;20.20;83.20
1958;DHT22;979;51.076;13.748;2023-09-07T07:18:56;20.30;82.40
1958;DHT22;979;51.076;13.748;2023-09-07T07:22:10;20.50;82.80
1958;DHT22;979;51.076;13.748;2023-09-07T07:24:57;20.70;82.20
1958;DHT22;979;51.076;13.748;2023-09-07T07:31:11;21.00;81.30
1958;DHT22;979;51.076;13.748;2023-09-07T07:33:59;21.20;81.60
1958;DHT22;979;51.076;13.748;2023-09-07T07:36:46;21.40;80.90
1958;DHT22;979;51.076;13.748;2023-09-07T07:39:34;21.50;80.80
1958;DHT22;979;51.076;13.748;2023-09-07T07:42:21;21.70;80.50
1958;DHT22;979;51.076;13.748;2023-09-07T07:45:27;21.90;80.10
1958;DHT22;979;51.076;13.748;2023-09-07T07:48:03;22.10;79.40
1958;DHT22;979;51.076;13.748;2023-09-07T07:53:44;22.40;79.10
1958;DHT22;979;51.076;13.748;2023-09-07T07:56:27;22.70;78.90
1958;DHT22;979;51.076;13.748;2023-09-07T07:59:05;22.80;78.00
1958;DHT22;979;51.076;13.748;2023-09-07T08:01:50;22.90;78.10
1958;DHT22;979;51.076;13.748;2023-09-07T08:04:30;23.20;77.30
1958;DHT22;979;51.076;13.748;2023-09-07T08:07:17;23.30;77.30
1958;DHT22;979;51.076;13.748;2023-09-07T08:09:55;23.40;76.60
1958;DHT22;979;51.076;13.748;2023-09-07T08:12:43;23.60;75.70
1958;DHT22;979;51.076;13.748;2023-09-07T08:15:24;23.70;75.20
1958;DHT22;979;51.076;13.748;2023-09-07T08:18:02;23.90;75.50
1958;DHT22;979;51.076;13.748;2023-09-07T08:20:43;24.00;74.80
1958;DHT22;979;51.076;13.748;2023-09-07T08:31:05;24.50;73.50
1958;DHT22;979;51.076;13.748;2023-09-07T08:36:47;24.60;72.30
1958;DHT22;979;51.076;13.748;2023-09-07T08:39:35;25.00;71.90
1958;DHT22;979;51.076;13.748;2023-09-07T08:42:32;25.20;70.70
1958;DHT22;979;51.076;13.748;2023-09-07T08:45:21;25.30;70.30
1958;DHT22;979;51.076;13.748;2023-09-07T08:48:18;25.50;69.90
1958;DHT22;979;51.076;13.748;2023-09-07T08:51:41;25.70;69.30
1958;DHT22;979;51.076;13.748;2023-09-07T08:54:31;25.70;67.80
1958;DHT22;979;51.076;13.748;2023-09-07T08:57:46;25.80;68.30
1958;DHT22;979;51.076;13.748;2023-09-07T09:00:35;25.90;67.90
1958;DHT22;979;51.076;13.748;2023-09-07T09:03:40;26.10;67.60
1958;DHT22;979;51.076;13.748;2023-09-07T09:06:36;26.30;67.90
1958;DHT22;979;51.076;13.748;2023-09-07T09:09:25;26.40;66.90
1958;DHT22;979;51.076;13.748;2023-09-07T09:12:34;26.30;66.10
1958;DHT22;979;51.076;13.748;2023-09-07T09:15:23;26.60;66.90
1958;DHT22;979;51.076;13.748;2023-09-07T09:18:22;26.70;66.20
1958;DHT22;979;51.076;13.748;2023-09-07T09:21:23;26.90;65.90
1958;DHT22;979;51.076;13.748;2023-09-07T09:24:23;27.20;65.50
1958;DHT22;979;51.076;13.748;2023-09-07T09:27:16;27.00;64.90
1958;DHT22;979;51.076;13.748;2023-09-07T09:30:10;27.10;64.80
1958;DHT22;979;51.076;13.748;2023-09-07T09:32:59;27.30;64.60
1958;DHT22;979;51.076;13.748;2023-09-07T09:35:54;27.20;63.50
1958;DHT22;979;51.076;13.748;2023-09-07T09:38:54;27.60;63.30
1958;DHT22;979;51.076;13.748;2023-09-07T10:00:16;28.10;61.50
1958;DHT22;979;51.076;13.748;2023-09-07T10:03:05;27.90;61.10
1958;DHT22;979;51.076;13.748;2023-09-07T10:06:28;28.10;61.20
1958;DHT22;979;51.076;13.748;2023-09-07T10:09:29;28.20;60.90
1958;DHT22;979;51.076;13.748;2023-09-07T10:12:27;28.30;61.30
1958;DHT22;979;51.076;13.748;2023-09-07T10:26:18;28.60;58.60
1958;DHT22;979;51.076;13.748;2023-09-07T10:29:57;28.70;59.10
1958;DHT22;979;51.076;13.748;2023-09-07T10:33:24;28.90;58.90
1958;DHT22;979;51.076;13.748;2023-09-07T10:36:26;28.80;58.90
1958;DHT22;979;51.076;13.748;2023-09-07T10:40:02;29.00;58.20
1958;DHT22;979;51.076;13.748;2023-09-07T10:50:41;29.20;56.60
1958;DHT22;979;51.076;13.748;2023-09-07T10:53:28;29.10;56.20
1958;DHT22;979;51.076;13.748;2023-09-07T10:56:12;29.40;56.50
1958;DHT22;979;51.076;13.748;2023-09-07T10:58:49;29.50;55.90
1958;DHT22;979;51.076;13.748;2023-09-07T11:01:48;29.50;56.00
1958;DHT22;979;51.076;13.748;2023-09-07T11:05:01;29.60;55.80
1958;DHT22;979;51.076;13.748;2023-09-07T11:08:37;29.80;55.80
1958;DHT22;979;51.076;13.748;2023-09-07T11:11:34;29.80;55.00
1958;DHT22;979;51.076;13.748;2023-09-07T11:14:36;29.70;55.70
1958;DHT22;979;51.076;13.748;2023-09-07T11:17:32;29.90;54.90
1958;DHT22;979;51.076;13.748;2023-09-07T11:20:35;29.90;54.70
1958;DHT22;979;51.076;13.748;2023-09-07T11:23:39;30.10;55.30
1958;DHT22;979;51.076;13.748;2023-09-07T11:26:18;30.10;54.70
1958;DHT22;979;51.076;13.748;2023-09-07T11:29:22;30.30;54.90
1958;DHT22;979;51.076;13.748;2023-09-07T11:32:32;30.80;54.50
1958;DHT22;979;51.076;13.748;2023-09-07T11:35:12;31.80;54.10
1958;DHT22;979;51.076;13.748;2023-09-07T11:38:01;32.90;53.70
1958;DHT22;979;51.076;13.748;2023-09-07T11:41:05;34.10;52.40
1958;DHT22;979;51.076;13.748;2023-09-07T11:43:55;35.40;49.80
1958;DHT22;979;51.076;13.748;2023-09-07T11:46:43;36.10;49.60
1958;DHT22;979;51.076;13.748;2023-09-07T11:49:12;36.50;48.70
1958;DHT22;979;51.076;13.748;2023-09-07T11:52:17;37.10;48.20
1958;DHT22;979;51.076;13.748;2023-09-07T11:55:17;38.40;46.70
1958;DHT22;979;51.076;13.748;2023-09-07T11:58:09;39.40;46.80
1958;DHT22;979;51.076;13.748;2023-09-07T12:00:59;40.60;45.80
1958;DHT22;979;51.076;13.748;2023-09-07T12:03:36;41.50;44.90
1958;DHT22;979;51.076;13.748;2023-09-07T12:06:10;42.40;44.60
1958;DHT22;979;51.076;13.748;2023-09-07T12:08:58;43.30;43.40
1958;DHT22;979;51.076;13.748;2023-09-07T12:11:39;44.00;42.70
1958;DHT22;979;51.076;13.748;2023-09-07T12:20:49;45.90;41.10
1958;DHT22;979;51.076;13.748;2023-09-07T12:23:44;46.10;41.40
1958;DHT22;979;51.076;13.748;2023-09-07T12:26:31;46.70;40.50
1958;DHT22;979;51.076;13.748;2023-09-07T12:29:43;47.00;40.00
1958;DHT22;979;51.076;13.748;2023-09-07T12:32:50;47.10;39.60
1958;DHT22;979;51.076;13.748;2023-09-07T12:35:44;47.30;39.80
1958;DHT22;979;51.076;13.748;2023-09-07T12:38:23;47.40;39.90
1958;DHT22;979;51.076;13.748;2023-09-07T12:41:12;47.40;39.10
1958;DHT22;979;51.076;13.748;2023-09-07T12:44:04;47.60;38.80
1958;DHT22;979;51.076;13.748;2023-09-07T13:09:50;48.10;37.30
1958;DHT22;979;51.076;13.748;2023-09-07T13:12:47;48.10;37.00
1958;DHT22;979;51.076;13.748;2023-09-07T13:15:46;48.70;37.60
1958;DHT22;979;51.076;13.748;2023-09-07T13:18:26;48.80;37.00
1958;DHT22;979;51.076;13.748;2023-09-07T13:21:37;49.00;37.20
1958;DHT22;979;51.076;13.748;2023-09-07T13:24:18;49.10;36.40
1958;DHT22;979;51.076;13.748;2023-09-07T13:27:08;49.40;36.90
1958;DHT22;979;51.076;13.748;2023-09-07T13:29:50;49.40;36.10
1958;DHT22;979;51.076;13.748;2023-09-07T13:32:44;49.00;36.00
1958;DHT22;979;51.076;13.748;2023-09-07T13:35:38;48.70;36.20
1958;DHT22;979;51.076;13.748;2023-09-07T13:38:40;48.10;36.50
1958;DHT22;979;51.076;13.748;2023-09-07T13:41:22;48.30;36.10
1958;DHT22;979;51.076;13.748;2023-09-07T13:44:19;48.50;36.40
1958;DHT22;979;51.076;13.748;2023-09-07T13:46:59;48.60;36.40
1958;DHT22;979;51.076;13.748;2023-09-07T13:49:36;48.30;36.40
1958;DHT22;979;51.076;13.748;2023-09-07T13:52:44;48.30;36.10
1958;DHT22;979;51.076;13.748;2023-09-07T13:55:44;48.40;35.40
1958;DHT22;979;51.076;13.748;2023-09-07T13:58:22;47.80;35.90
1958;DHT22;979;51.076;13.748;2023-09-07T14:01:29;47.20;35.90
1958;DHT22;979;51.076;13.748;2023-09-07T14:03:59;47.10;36.20
1958;DHT22;979;51.076;13.748;2023-09-07T14:06:44;46.80;36.10
1958;DHT22;979;51.076;13.748;2023-09-07T14:09:38;46.70;36.60
1958;DHT22;979;51.076;13.748;2023-09-07T14:12:13;47.10;36.20
1958;DHT22;979;51.076;13.748;2023-09-07T14:14:51;47.30;35.90
1958;DHT22;979;51.076;13.748;2023-09-07T14:20:37;47.50;35.70
1958;DHT22;979;51.076;13.748;2023-09-07T14:23:20;47.30;35.90
1958;DHT22;979;51.076;13.748;2023-09-07T14:26:02;47.30;35.60
1958;DHT22;979;51.076;13.748;2023-09-07T14:28:39;47.30;35.50
1958;DHT22;979;51.076;13.748;2023-09-07T14:31:22;47.40;34.90
1958;DHT22;979;51.076;13.748;2023-09-07T14:34:05;47.20;35.20
1958;DHT22;979;51.076;13.748;2023-09-07T14:36:55;47.30;35.30
1958;DHT22;979;51.076;13.748;2023-09-07T14:39:40;47.00;34.80
1958;DHT22;979;51.076;13.748;2023-09-07T14:42:26;46.50;35.30
1958;DHT22;979;51.076;13.748;2023-09-07T14:44:56;46.40;35.80
1958;DHT22;979;51.076;13.748;2023-09-07T14:47:32;46.40;35.50
1958;DHT22;979;51.076;13.748;2023-09-07T14:50:29;46.30;35.60
1958;DHT22;979;51.076;13.748;2023-09-07T14:53:14;46.30;36.40
1958;DHT22;979;51.076;13.748;2023-09-07T14:55:47;45.30;35.20
1958;DHT22;979;51.076;13.748;2023-09-07T14:58:34;43.90;36.20
1958;DHT22;979;51.076;13.748;2023-09-07T15:01:11;41.90;36.50
1958;DHT22;979;51.076;13.748;2023-09-07T15:03:56;40.80;36.60
1958;DHT22;979;51.076;13.748;2023-09-07T15:06:53;39.50;37.60
1958;DHT22;979;51.076;13.748;2023-09-07T15:09:31;38.20;37.60
1958;DHT22;979;51.076;13.748;2023-09-07T15:12:09;37.30;38.10
1958;DHT22;979;51.076;13.748;2023-09-07T15:14:44;36.60;39.10
1958;DHT22;979;51.076;13.748;2023-09-07T15:17:38;35.80;39.50
1958;DHT22;979;51.076;13.748;2023-09-07T15:20:38;35.40;40.40
1958;DHT22;979;51.076;13.748;2023-09-07T15:23:44;35.10;40.70
1958;DHT22;979;51.076;13.748;2023-09-07T15:26:43;34.70;41.30
1958;DHT22;979;51.076;13.748;2023-09-07T15:29:20;34.50;41.80
1958;DHT22;979;51.076;13.748;2023-09-07T15:32:36;34.20;42.20
1958;DHT22;979;51.076;13.748;2023-09-07T15:35:39;33.90;42.00
1958;DHT22;979;51.076;13.748;2023-09-07T15:41:21;34.30;43.40
1958;DHT22;979;51.076;13.748;2023-09-07T15:44:25;35.20;43.20
1958;DHT22;979;51.076;13.748;2023-09-07T15:47:10;36.40;42.30
1958;DHT22;979;51.076;13.748;2023-09-07T15:50:13;37.20;42.40
1958;DHT22;979;51.076;13.748;2023-09-07T15:53:08;37.80;41.40
1958;DHT22;979;51.076;13.748;2023-09-07T15:55:59;38.50;40.70
1958;DHT22;979;51.076;13.748;2023-09-07T15:58:47;38.80;40.60
1958;DHT22;979;51.076;13.748;2023-09-07T16:01:26;39.10;40.30
1958;DHT22;979;51.076;13.748;2023-09-07T16:04:17;39.80;40.70
1958;DHT22;979;51.076;13.748;2023-09-07T16:06:57;40.30;40.20
1958;DHT22;979;51.076;13.748;2023-09-07T16:10:00;40.60;39.60
1958;DHT22;979;51.076;13.748;2023-09-07T16:13:05;40.50;39.10
1958;DHT22;979;51.076;13.748;2023-09-07T16:15:34;41.00;39.70
1958;DHT22;979;51.076;13.748;2023-09-07T16:18:29;41.00;39.90
1958;DHT22;979;51.076;13.748;2023-09-07T16:21:26;41.10;40.00
1958;DHT22;979;51.076;13.748;2023-09-07T16:24:11;40.60;40.10
1958;DHT22;979;51.076;13.748;2023-09-07T16:27:17;40.90;40.60
1958;DHT22;979;51.076;13.748;2023-09-07T16:33:04;40.50;41.30
1958;DHT22;979;51.076;13.748;2023-09-07T16:36:00;40.30;41.30
1958;DHT22;979;51.076;13.748;2023-09-07T16:38:56;39.80;42.40
1958;DHT22;979;51.076;13.748;2023-09-07T16:41:45;39.50;42.40
1958;DHT22;979;51.076;13.748;2023-09-07T16:44:36;39.20;42.50
1958;DHT22;979;51.076;13.748;2023-09-07T16:47:34;39.10;42.30
1958;DHT22;979;51.076;13.748;2023-09-07T16:50:17;38.90;42.90
1958;DHT22;979;51.076;13.748;2023-09-07T16:52:56;38.50;42.60
1958;DHT22;979;51.076;13.748;2023-09-07T16:55:33;38.30;43.70
1958;DHT22;979;51.076;13.748;2023-09-07T16:58:16;38.00;44.10
1958;DHT22;979;51.076;13.748;2023-09-07T17:00:56;37.90;43.80
1958;DHT22;979;51.076;13.748;2023-09-07T17:04:05;37.20;43.90
1958;DHT22;979;51.076;13.748;2023-09-07T17:22:31;32.80;47.40
1958;DHT22;979;51.076;13.748;2023-09-07T17:25:12;32.20;47.40
1958;DHT22;979;51.076;13.748;2023-09-07T17:28:03;32.00;48.70
1958;DHT22;979;51.076;13.748;2023-09-07T17:30:38;31.50;49.20
1958;DHT22;979;51.076;13.748;2023-09-07T17:33:12;30.90;49.70
1958;DHT22;979;51.076;13.748;2023-09-07T17:39:08;30.10;50.60
1958;DHT22;979;51.076;13.748;2023-09-07T17:41:54;30.00;51.10
1958;DHT22;979;51.076;13.748;2023-09-07T17:44:37;29.70;51.70
1958;DHT22;979;51.076;13.748;2023-09-07T17:47:22;29.40;52.60
1958;DHT22;979;51.076;13.748;2023-09-07T17:50:06;29.20;52.40
1958;DHT22;979;51.076;13.748;2023-09-07T17:52:38;28.90;52.50
1958;DHT22;979;51.076;13.748;2023-09-07T17:55:21;28.70;53.20
1958;DHT22;979;51.076;13.748;2023-09-07T17:58:09;28.60;53.50
1958;DHT22;979;51.076;13.748;2023-09-07T18:00:48;28.30;53.70
1958;DHT22;979;51.076;13.748;2023-09-07T18:03:25;28.10;53.80
1958;DHT22;979;51.076;13.748;2023-09-07T18:06:10;27.90;54.60
1958;DHT22;979;51.076;13.748;2023-09-07T18:09:13;27.70;54.60
1958;DHT22;979;51.076;13.748;2023-09-07T18:11:46;27.60;54.90
1958;DHT22;979;51.076;13.748;2023-09-07T18:14:31;27.50;55.70
1958;DHT22;979;51.076;13.748;2023-09-07T18:17:11;27.30;55.60
1958;DHT22;979;51.076;13.748;2023-09-07T18:19:52;27.20;55.90
1958;DHT22;979;51.076;13.748;2023-09-07T18:22:30;27.00;56.30
1958;DHT22;979;51.076;13.748;2023-09-07T18:25:20;26.90;55.90
1958;DHT22;979;51.076;13.748;2023-09-07T18:28:15;26.80;56.50
1958;DHT22;979;51.076;13.748;2023-09-07T18:30:58;26.80;56.40
1958;DHT22;979;51.076;13.748;2023-09-07T18:33:53;26.60;57.00
1958;DHT22;979;51.076;13.748;2023-09-07T18:37:07;26.40;57.50
1958;DHT22;979;51.076;13.748;2023-09-07T18:41:00;26.40;57.60
1958;DHT22;979;51.076;13.748;2023-09-07T18:44:01;26.30;57.40
1958;DHT22;979;51.076;13.748;2023-09-07T18:51:02;25.90;57.70
1958;DHT22;979;51.076;13.748;2023-09-07T18:54:32;25.90;58.30
1958;DHT22;979;51.076;13.748;2023-09-07T18:58:29;25.70;58.40
1958;DHT22;979;51.076;13.748;2023-09-07T19:01:55;25.70;58.70
1958;DHT22;979;51.076;13.748;2023-09-07T19:09:43;25.40;59.20
1958;DHT22;979;51.076;13.748;2023-09-07T19:17:05;25.30;59.40
1958;DHT22;979;51.076;13.748;2023-09-07T19:23:49;25.20;59.60
1958;DHT22;979;51.076;13.748;2023-09-07T19:26:39;25.20;59.50
1958;DHT22;979;51.076;13.748;2023-09-07T19:29:35;25.10;60.10
1958;DHT22;979;51.076;13.748;2023-09-07T19:32:43;25.10;60.40
1958;DHT22;979;51.076;13.748;2023-09-07T19:36:08;24.90;60.00
1958;DHT22;979;51.076;13.748;2023-09-07T19:38:48;24.80;60.30
1958;DHT22;979;51.076;13.748;2023-09-07T19:41:38;24.80;60.50
1958;DHT22;979;51.076;13.748;2023-09-07T19:44:31;24.70;60.70
1958;DHT22;979;51.076;13.748;2023-09-07T19:47:17;24.70;60.90
1958;DHT22;979;51.076;13.748;2023-09-07T19:56:53;24.50;61.30
1958;DHT22;979;51.076;13.748;2023-09-07T19:59:41;24.40;61.40
1958;DHT22;979;51.076;13.748;2023-09-07T20:02:31;24.40;61.70
1958;DHT22;979;51.076;13.748;2023-09-07T20:05:38;24.70;62.30
1958;DHT22;979;51.076;13.748;2023-09-07T20:11:22;24.10;62.50
1958;DHT22;979;51.076;13.748;2023-09-07T20:14:12;24.10;62.40
1958;DHT22;979;51.076;13.748;2023-09-07T20:16:59;23.80;62.20
1958;DHT22;979;51.076;13.748;2023-09-07T20:19:42;23.90;63.30
1958;DHT22;979;51.076;13.748;2023-09-07T20:22:33;23.90;63.30
1958;DHT22;979;51.076;13.748;2023-09-07T20:25:27;23.80;63.10
1958;DHT22;979;51.076;13.748;2023-09-07T20:28:34;23.60;63.20
1958;DHT22;979;51.076;13.748;2023-09-07T20:31:38;23.40;63.10
1958;DHT22;979;51.076;13.748;2023-09-07T20:34:45;23.50;63.70
1958;DHT22;979;51.076;13.748;2023-09-07T20:37:33;23.40;63.60
1958;DHT22;979;51.076;13.748;2023-09-07T20:40:14;23.10;63.80
1958;DHT22;979;51.076;13.748;2023-09-07T20:43:17;23.40;63.80
1958;DHT22;979;51.076;13.748;2023-09-07T20:46:09;23.20;64.60
1958;DHT22;979;51.076;13.748;2023-09-07T20:48:49;23.20;64.50
1958;DHT22;979;51.076;13.748;2023-09-07T20:51:35;23.00;64.70
1958;DHT22;979;51.076;13.748;2023-09-07T20:54:09;23.00;64.60
1958;DHT22;979;51.076;13.748;2023-09-07T20:56:57;22.90;65.30
1958;DHT22;979;51.076;13.748;2023-09-07T20:59:44;22.80;65.10
1958;DHT22;979;51.076;13.748;2023-09-07T21:02:38;22.70;65.30
1958;DHT22;979;51.076;13.748;2023-09-07T21:05:41;22.70;65.70
1958;DHT22;979;51.076;13.748;2023-09-07T21:08:23;22.60;65.40
1958;DHT22;979;51.076;13.748;2023-09-07T21:11:14;22.60;66.80
1958;DHT22;979;51.076;13.748;2023-09-07T21:14:05;22.50;66.20
1958;DHT22;979;51.076;13.748;2023-09-07T21:16:59;22.40;66.20